Terminal Aerodrome Forecast
Issued by NWS Duluth, MN

Home | Current Version | Previous Version | Text Only | Print | Product List | Glossary On
Versions: 1 2 3 4 5 6 7 8 9 10 11 12 13 14 15 16 17 18 19 20 21 22 23 24 25 26 27 28 29 30 31 32 33 34 35 36 37 38 39 40 41 42 43 44 45
000
FTUS43 KDLH 262331
TAFDLH
TAF
KDLH 262331Z 2700/2724 11003KT 1/4SM FG VV002
     FM270400 05004KT 3/4SM BR OVC003
     FM271500 05005KT 5SM BR OVC008
     FM271700 06005KT P6SM OVC010
     FM271900 07005KT P6SM SCT010 BKN050
     FM272200 05006KT P6SM SCT015=

USA.gov is the U.S. government's official web portal to all federal, state and local government web resources and services.